Weather at Sleipner B Platform

Public forecast

Using degrees Celsius for public forecast. Weather courtesy of forecast.io.

Closest aviation weather report (METAR) to Sleipner B Platform

Closest report is Sleipner A Platform, 6.7 nm (12.4 km) ESE.

2023/03/28 17:20 (retrieved 31 minutes ago)

ENSL 281720Z AUTO 25011KT 9999NDV -DZ OVC023/// 06/04 Q1010 W04/S4

Closest aviation forecast (TAF) to Sleipner B Platform

Closest forecast is Stavanger Airport, Sola, 125.6 nm (232.5 km) ENE.

2023/03/28 12:36 (retrieved 5 hours ago)

TAF ENZV 281100Z 2812/2912 16012KT 9999 -SHRA SCT010 BKN030 TEMPO 2812/2813 FEW010CB TEMPO 2813/2816 16020G30KT 1400 SHSNRA BKN005 SCT015CB TEMPO 2816/2903 SHRA BKN008 SCT018CB BECMG 2822/2824 10005KT PROB30 2901/2906 0400 FG VV002